Time;durP1;ratioP1;P1;durP2;ratioP2;P2;SDS_P1;SDS_P2;PMS_P1;PMS_P2;Temp;Humidity;BMP_temperature;BMP_pressure;BME280_temperature;BME280_humidity;BME280_pressure;Samples;Min_cycle;Max_cycle;Signal;HPM_P1;HPM_P2
2021/01/30 00:02:35;;;;;;;15.50;10.20;;;0.50;99.90;;;;;;6935054;28;20867;-66
2021/01/30 00:05:56;;;;;;;15.73;10.10;;;0.50;99.90;;;;;;6961076;28;20899;-66
2021/01/30 00:09:18;;;;;;;15.82;10.50;;;0.50;99.90;;;;;;6938323;28;20894;-65
2021/01/30 00:12:39;;;;;;;17.13;9.80;;;0.60;99.90;;;;;;6933915;28;20409;-65
2021/01/30 00:16:00;;;;;;;15.17;9.80;;;0.60;99.90;;;;;;6940631;28;20403;-65
2021/01/30 00:19:21;;;;;;;15.57;10.27;;;0.60;99.90;;;;;;6953708;28;20412;-66
2021/01/30 00:22:42;;;;;;;15.38;10.32;;;0.70;99.90;;;;;;6963161;28;20407;-65
2021/01/30 00:26:03;;;;;;;16.00;10.32;;;0.60;99.90;;;;;;6938998;28;20423;-66
2021/01/30 00:29:27;;;;;;;17.00;10.50;;;0.70;99.90;;;;;;6942057;28;20981;-66
2021/01/30 00:32:48;;;;;;;16.10;10.07;;;0.70;99.90;;;;;;6972960;28;20442;-65
2021/01/30 00:36:09;;;;;;;17.20;10.00;;;0.70;99.90;;;;;;6937700;28;20413;-65
2021/01/30 00:39:30;;;;;;;18.00;10.70;;;0.80;99.90;;;;;;6940700;28;20740;-66
2021/01/30 00:42:51;;;;;;;15.73;9.90;;;0.70;99.90;;;;;;6950326;28;20402;-65
2021/01/30 00:46:12;;;;;;;16.02;10.02;;;0.80;99.90;;;;;;6938037;28;20408;-65
2021/01/30 00:49:33;;;;;;;16.30;10.20;;;0.90;99.90;;;;;;6945069;28;20402;-66
2021/01/30 00:52:55;;;;;;;16.80;10.37;;;0.80;99.90;;;;;;6938083;28;20975;-67
2021/01/30 00:56:22;;;;;;;16.08;9.90;;;0.90;99.90;;;;;;6944394;28;20399;-66
2021/01/30 00:59:43;;;;;;;16.37;9.80;;;0.90;99.90;;;;;;6961971;28;20406;-65
2021/01/30 01:03:04;;;;;;;14.40;9.33;;;0.90;99.90;;;;;;6946053;28;20438;-66
2021/01/30 01:06:36;;;;;;;14.48;9.52;;;1.00;99.90;;;;;;6969346;28;20394;-67
2021/01/30 01:09:57;;;;;;;16.07;10.30;;;1.00;99.90;;;;;;6937566;28;20917;-65
2021/01/30 01:13:19;;;;;;;16.83;10.60;;;1.00;99.90;;;;;;6962414;28;20435;-66
2021/01/30 01:16:39;;;;;;;15.48;10.55;;;1.00;99.90;;;;;;6944755;28;20407;-65
2021/01/30 01:20:00;;;;;;;16.20;10.67;;;1.00;99.90;;;;;;6962394;28;20783;-66
2021/01/30 01:23:22;;;;;;;16.77;10.47;;;1.10;99.90;;;;;;6961002;28;20423;-66
2021/01/30 01:26:45;;;;;;;15.73;10.13;;;1.10;99.90;;;;;;6956408;28;20407;-66
2021/01/30 01:30:09;;;;;;;15.10;10.27;;;1.20;99.90;;;;;;6941188;28;20407;-64
2021/01/30 01:33:30;;;;;;;15.73;10.20;;;1.20;99.90;;;;;;6943766;28;20477;-63
2021/01/30 01:37:00;;;;;;;17.20;10.77;;;1.10;99.90;;;;;;6951596;28;20884;-64
2021/01/30 01:40:25;;;;;;;16.85;10.60;;;1.10;99.90;;;;;;6937289;28;20452;-63
2021/01/30 01:43:50;;;;;;;16.23;9.95;;;1.10;99.90;;;;;;6925679;28;20482;-64
2021/01/30 01:47:37;;;;;;;16.13;10.18;;;1.20;99.90;;;;;;6931871;28;20399;-65
2021/01/30 01:50:58;;;;;;;15.40;9.80;;;1.20;99.90;;;;;;6955043;28;20525;-64
2021/01/30 01:54:22;;;;;;;15.40;10.32;;;1.30;99.90;;;;;;6936127;28;20424;-64
2021/01/30 01:57:51;;;;;;;15.10;10.20;;;1.30;99.90;;;;;;6972317;28;20464;-62
2021/01/30 02:01:12;;;;;;;13.75;9.35;;;1.20;99.90;;;;;;6965061;28;20752;-65
2021/01/30 02:04:33;;;;;;;14.70;9.43;;;1.20;99.90;;;;;;6944869;28;20407;-63
2021/01/30 02:07:58;;;;;;;13.77;8.93;;;1.30;99.90;;;;;;6962714;28;20400;-66
2021/01/30 02:11:19;;;;;;;13.63;9.07;;;1.30;99.90;;;;;;6973637;28;20587;-61
2021/01/30 02:14:45;;;;;;;14.00;9.03;;;1.40;99.90;;;;;;6946022;28;20400;-60
2021/01/30 02:18:16;;;;;;;13.52;8.73;;;1.40;99.90;;;;;;6957221;28;20406;-63
2021/01/30 02:21:55;;;;;;;14.82;9.77;;;1.50;99.90;;;;;;6959126;28;20879;-62
2021/01/30 02:25:30;;;;;;;14.65;9.35;;;1.50;99.90;;;;;;6975467;28;20400;-64
2021/01/30 02:29:10;;;;;;;14.20;9.50;;;1.50;99.90;;;;;;6936918;28;20447;-65
2021/01/30 02:33:04;;;;;;;13.75;9.48;;;1.50;99.90;;;;;;6943019;28;20903;-63
2021/01/30 02:36:40;;;;;;;15.63;9.80;;;1.50;99.90;;;;;;6985036;28;20902;-63
2021/01/30 02:40:08;;;;;;;14.90;9.70;;;1.50;99.90;;;;;;6940601;28;20753;-64
2021/01/30 02:43:36;;;;;;;15.77;10.40;;;1.50;99.90;;;;;;6935215;28;20514;-63
2021/01/30 02:46:58;;;;;;;15.88;10.30;;;1.50;99.90;;;;;;6930874;28;20403;-65
2021/01/30 02:50:27;;;;;;;15.05;9.95;;;1.60;99.90;;;;;;6941443;28;20450;-62
2021/01/30 02:53:52;;;;;;;16.08;10.20;;;1.70;99.90;;;;;;6953248;28;20411;-64
2021/01/30 02:57:14;;;;;;;15.33;10.17;;;1.70;99.90;;;;;;6942009;28;20419;-64
2021/01/30 03:00:44;;;;;;;16.23;10.02;;;1.60;99.90;;;;;;6964528;28;20387;-64
2021/01/30 03:04:13;;;;;;;15.65;10.07;;;1.60;99.90;;;;;;6939357;28;20416;-65
2021/01/30 03:08:06;;;;;;;16.83;10.27;;;1.60;99.90;;;;;;6941399;28;20407;-64
2021/01/30 03:11:43;;;;;;;16.70;10.38;;;1.50;99.90;;;;;;6940324;28;20419;-62
2021/01/30 03:15:20;;;;;;;16.58;10.95;;;1.50;99.90;;;;;;6934643;28;20418;-64
2021/01/30 03:18:49;;;;;;;16.30;10.60;;;1.50;99.90;;;;;;6958714;28;20400;-64
2021/01/30 03:22:13;;;;;;;16.30;10.63;;;1.50;99.90;;;;;;6954782;28;20399;-64
2021/01/30 03:25:36;;;;;;;15.20;10.40;;;1.50;99.90;;;;;;6941497;28;20462;-65
2021/01/30 03:28:57;;;;;;;15.85;10.30;;;1.60;99.90;;;;;;6952488;28;20399;-62
2021/01/30 03:32:19;;;;;;;16.30;10.83;;;1.60;99.90;;;;;;6959109;28;21014;-63
2021/01/30 03:35:40;;;;;;;16.60;10.60;;;1.50;99.90;;;;;;6950362;28;20407;-65
2021/01/30 03:39:03;;;;;;;16.30;10.40;;;1.50;99.90;;;;;;6959525;28;20399;-62
2021/01/30 03:42:24;;;;;;;15.70;10.30;;;1.50;99.90;;;;;;6939967;28;20942;-65
2021/01/30 03:45:45;;;;;;;15.90;10.73;;;1.60;99.90;;;;;;6945838;28;20431;-63
2021/01/30 03:49:05;;;;;;;17.40;11.13;;;1.60;99.90;;;;;;6934782;28;20411;-65
2021/01/30 03:52:26;;;;;;;17.95;11.40;;;1.60;99.90;;;;;;6939048;28;20749;-64
2021/01/30 03:55:47;;;;;;;16.92;11.20;;;1.60;99.90;;;;;;6957517;28;20887;-64
2021/01/30 03:59:08;;;;;;;18.50;11.73;;;1.60;99.90;;;;;;6953278;28;20438;-64
2021/01/30 04:02:29;;;;;;;16.80;11.43;;;1.70;99.90;;;;;;6961702;28;20407;-63
2021/01/30 04:05:49;;;;;;;16.42;10.65;;;1.70;99.90;;;;;;6955914;28;20403;-60
2021/01/30 04:09:10;;;;;;;18.30;11.00;;;1.70;99.90;;;;;;6953507;28;20415;-64
2021/01/30 04:12:31;;;;;;;18.52;11.23;;;1.70;99.90;;;;;;6954826;28;20420;-65
2021/01/30 04:15:52;;;;;;;17.50;11.30;;;1.80;99.90;;;;;;6954508;28;20761;-64
2021/01/30 04:19:13;;;;;;;16.37;10.70;;;1.70;99.90;;;;;;6978692;28;20405;-64
2021/01/30 04:22:34;;;;;;;17.92;11.57;;;1.70;99.90;;;;;;6968240;28;20418;-64
2021/01/30 04:25:55;;;;;;;18.27;11.50;;;1.80;99.90;;;;;;6965096;28;20488;-63
2021/01/30 04:29:16;;;;;;;18.97;11.80;;;1.80;99.90;;;;;;6964130;28;20463;-62
2021/01/30 04:32:37;;;;;;;17.00;11.05;;;1.70;99.90;;;;;;6955734;28;20415;-64
2021/01/30 04:35:58;;;;;;;18.35;11.90;;;1.80;99.90;;;;;;6966571;28;20987;-65
2021/01/30 04:39:19;;;;;;;17.70;10.90;;;1.80;99.90;;;;;;6974019;28;20870;-66
2021/01/30 04:42:49;;;;;;;18.83;11.90;;;1.70;99.90;;;;;;6978105;28;20462;-66
2021/01/30 04:46:17;;;;;;;19.30;11.50;;;1.70;99.90;;;;;;6966245;28;20423;-66
2021/01/30 04:49:54;;;;;;;17.27;10.90;;;1.70;99.90;;;;;;6955596;28;20785;-64
2021/01/30 04:53:24;;;;;;;19.63;11.95;;;1.60;99.90;;;;;;6955092;28;20417;-66
2021/01/30 04:57:11;;;;;;;18.05;11.80;;;1.60;99.90;;;;;;6963870;28;20438;-67
2021/01/30 05:00:39;;;;;;;16.60;10.82;;;1.60;99.90;;;;;;6943770;28;20399;-66
2021/01/30 05:04:18;;;;;;;17.65;10.93;;;1.60;99.90;;;;;;6964210;28;20457;-66
2021/01/30 05:07:47;;;;;;;20.70;12.37;;;1.60;99.90;;;;;;6945391;28;20889;-66
2021/01/30 05:11:15;;;;;;;16.52;11.02;;;1.60;99.90;;;;;;6951765;28;20404;-65
2021/01/30 05:14:43;;;;;;;17.65;11.73;;;1.60;99.90;;;;;;6947037;28;20411;-65
2021/01/30 05:18:18;;;;;;;18.95;11.80;;;1.50;99.90;;;;;;6963095;28;20898;-66
2021/01/30 05:21:51;;;;;;;19.70;11.90;;;1.50;99.90;;;;;;6965553;28;20460;-64
2021/01/30 05:25:17;;;;;;;17.92;11.70;;;1.50;99.90;;;;;;6945485;28;20411;-66
2021/01/30 05:28:49;;;;;;;21.58;12.48;;;1.50;99.90;;;;;;6951277;28;20416;-65
2021/01/30 05:32:14;;;;;;;19.10;12.00;;;1.50;99.90;;;;;;6933934;28;20416;-65
2021/01/30 05:35:52;;;;;;;18.85;12.00;;;1.50;99.90;;;;;;6949742;28;20503;-65
2021/01/30 05:39:42;;;;;;;21.10;12.88;;;1.50;99.90;;;;;;6946549;28;20504;-64
2021/01/30 05:43:11;;;;;;;19.50;12.80;;;1.50;99.90;;;;;;6954895;28;20459;-64
2021/01/30 05:46:33;;;;;;;19.17;11.87;;;1.60;99.90;;;;;;6982774;28;20410;-65
2021/01/30 05:50:10;;;;;;;21.50;12.40;;;1.60;99.90;;;;;;6951007;28;20776;-65
2021/01/30 05:53:31;;;;;;;19.85;13.13;;;1.60;99.90;;;;;;6962686;28;20801;-65
2021/01/30 05:56:52;;;;;;;20.38;12.70;;;1.60;99.90;;;;;;6943115;28;20411;-67
2021/01/30 06:00:18;;;;;;;20.13;12.43;;;1.60;99.90;;;;;;6943300;28;20929;-66
2021/01/30 06:03:55;;;;;;;20.77;12.60;;;1.60;99.90;;;;;;6946574;28;20400;-65
2021/01/30 06:07:30;;;;;;;20.45;12.50;;;1.60;99.90;;;;;;6946610;28;20395;-65
2021/01/30 06:11:03;;;;;;;21.35;12.82;;;1.60;99.90;;;;;;6949364;28;20909;-65
2021/01/30 06:14:33;;;;;;;19.40;12.40;;;1.50;99.90;;;;;;6935894;28;20786;-64
2021/01/30 06:17:56;;;;;;;21.45;13.20;;;1.50;99.90;;;;;;6946677;28;20427;-66
2021/01/30 06:21:20;;;;;;;20.00;12.40;;;1.50;99.90;;;;;;6938518;28;20402;-67
2021/01/30 06:24:45;;;;;;;19.38;12.20;;;1.50;99.90;;;;;;6936956;28;20433;-66
2021/01/30 06:28:30;;;;;;;19.35;12.35;;;1.50;99.90;;;;;;6939971;28;20483;-66
2021/01/30 06:31:51;;;;;;;19.80;12.30;;;1.40;99.90;;;;;;6943223;28;20464;-61
2021/01/30 06:35:24;;;;;;;21.42;13.50;;;1.40;99.90;;;;;;6957686;28;20391;-66
2021/01/30 06:38:59;;;;;;;20.50;12.95;;;1.40;99.90;;;;;;6963403;28;20415;-66
2021/01/30 06:42:29;;;;;;;20.70;12.40;;;1.40;99.90;;;;;;6942520;28;20408;-65
2021/01/30 06:45:50;;;;;;;20.67;12.60;;;1.30;99.90;;;;;;6944053;28;20880;-66
2021/01/30 06:49:18;;;;;;;21.77;14.10;;;1.30;99.90;;;;;;6949752;28;20442;-64
2021/01/30 06:52:39;;;;;;;21.00;13.10;;;1.20;99.90;;;;;;6946160;28;20420;-66
2021/01/30 06:56:21;;;;;;;21.58;12.95;;;1.20;99.90;;;;;;6954468;28;20405;-65
2021/01/30 07:00:10;;;;;;;19.98;13.02;;;1.10;99.90;;;;;;6933085;28;20902;-64
2021/01/30 07:03:55;;;;;;;21.40;13.02;;;1.00;99.90;;;;;;6926371;28;20402;-65
2021/01/30 07:07:26;;;;;;;19.27;12.43;;;1.10;99.90;;;;;;6960534;28;20740;-65
2021/01/30 07:11:25;;;;;;;19.33;12.35;;;1.00;99.90;;;;;;6957226;28;20904;-65
2021/01/30 07:15:08;;;;;;;19.13;11.85;;;1.00;99.90;;;;;;6979276;28;20415;-65
2021/01/30 07:18:33;;;;;;;18.33;11.73;;;0.90;99.90;;;;;;6942637;28;20391;-65
2021/01/30 07:22:11;;;;;;;18.33;11.80;;;0.90;99.90;;;;;;6959841;28;20728;-63
2021/01/30 07:26:07;;;;;;;19.10;11.82;;;0.80;99.90;;;;;;6949021;28;20415;-64
2021/01/30 07:29:52;;;;;;;19.30;11.93;;;0.70;99.90;;;;;;6952000;28;20482;-65
2021/01/30 07:34:02;;;;;;;19.45;12.18;;;0.70;99.90;;;;;;6939475;28;20776;-64
2021/01/30 07:37:33;;;;;;;17.90;11.15;;;0.70;99.90;;;;;;6915790;28;20885;-65
2021/01/30 07:41:13;;;;;;;18.75;11.80;;;0.60;99.90;;;;;;6951657;28;20395;-65
2021/01/30 07:45:03;;;;;;;17.55;11.10;;;0.50;99.90;;;;;;6954098;28;20399;-65
2021/01/30 07:48:30;;;;;;;20.08;12.15;;;0.20;99.90;;;;;;6940646;28;20729;-64
2021/01/30 07:52:07;;;;;;;20.80;14.10;;;0.20;99.90;;;;;;6955901;28;20412;-65
2021/01/30 07:55:28;;;;;;;18.75;12.68;;;0.10;99.90;;;;;;6941364;28;20898;-64
2021/01/30 07:59:16;;;;;;;20.17;12.13;;;0.00;99.90;;;;;;6964113;28;20400;-65
2021/01/30 08:03:09;;;;;;;20.38;12.43;;;-0.10;99.90;;;;;;6961093;28;20902;-64
2021/01/30 08:06:54;;;;;;;19.73;11.95;;;-0.20;99.90;;;;;;6959032;28;20430;-64
2021/01/30 08:10:33;;;;;;;20.13;12.30;;;-0.20;99.90;;;;;;6956076;28;20419;-64
2021/01/30 08:14:06;;;;;;;20.23;12.55;;;-0.20;99.90;;;;;;6959512;28;20613;-64
2021/01/30 08:17:54;;;;;;;21.17;12.35;;;0.00;99.90;;;;;;6946711;28;20875;-65
2021/01/30 08:21:41;;;;;;;18.65;11.65;;;0.00;99.90;;;;;;6959989;28;20404;-63
2021/01/30 08:25:30;;;;;;;17.90;11.80;;;0.20;99.90;;;;;;6960228;28;20403;-64
2021/01/30 08:29:15;;;;;;;20.27;12.63;;;0.40;99.90;;;;;;6961849;28;20400;-65
2021/01/30 08:32:52;;;;;;;19.23;11.53;;;0.60;99.90;;;;;;6980689;28;20428;-63
2021/01/30 08:36:36;;;;;;;20.35;12.45;;;0.50;99.90;;;;;;6970465;28;20433;-64
2021/01/30 08:40:05;;;;;;;21.60;13.00;;;0.50;99.90;;;;;;6973378;28;20464;-64
2021/01/30 08:43:43;;;;;;;22.23;13.32;;;0.50;99.90;;;;;;6951525;28;20403;-63
2021/01/30 08:47:11;;;;;;;19.90;12.55;;;0.50;99.90;;;;;;6965883;28;20748;-64
2021/01/30 08:50:41;;;;;;;22.02;13.60;;;0.50;99.90;;;;;;6961519;28;20513;-64
2021/01/30 08:54:23;;;;;;;21.02;13.05;;;0.40;99.90;;;;;;6940908;28;20407;-65
2021/01/30 08:57:45;;;;;;;19.60;12.82;;;0.50;99.90;;;;;;6959378;28;20408;-63
2021/01/30 09:01:10;;;;;;;25.35;16.40;;;0.60;99.90;;;;;;6946869;28;20907;-63
2021/01/30 09:04:45;;;;;;;50.25;32.50;;;0.50;99.90;;;;;;6962357;28;20856;-65
2021/01/30 09:08:11;;;;;;;40.13;25.75;;;0.60;99.90;;;;;;6950685;28;20417;-65
2021/01/30 09:11:37;;;;;;;28.40;18.20;;;0.70;99.90;;;;;;6954053;28;20498;-64
2021/01/30 09:14:58;;;;;;;27.23;17.52;;;0.70;99.90;;;;;;6965174;28;20536;-65
2021/01/30 09:18:22;;;;;;;27.02;16.60;;;0.60;99.90;;;;;;7001094;28;20444;-64
2021/01/30 09:21:59;;;;;;;26.17;16.42;;;0.90;99.90;;;;;;6981795;28;20919;-59
2021/01/30 09:25:47;;;;;;;26.60;15.40;;;1.20;99.90;;;;;;6972857;28;20436;-64
2021/01/30 09:29:08;;;;;;;20.85;13.43;;;1.60;99.90;;;;;;6934880;28;20465;-64
2021/01/30 09:32:43;;;;;;;20.40;13.20;;;1.90;99.90;;;;;;6963742;28;20903;-64
2021/01/30 09:36:07;;;;;;;19.48;12.38;;;2.50;99.90;;;;;;6965977;28;20407;-64
2021/01/30 09:39:34;;;;;;;19.13;12.40;;;3.60;99.90;;;;;;6953992;28;20410;-64
2021/01/30 09:43:08;;;;;;;17.80;11.30;;;4.90;99.90;;;;;;6964794;28;20410;-65
2021/01/30 09:46:33;;;;;;;17.52;11.77;;;5.70;99.90;;;;;;6957366;28;20922;-65
2021/01/30 09:50:03;;;;;;;16.25;11.50;;;6.60;99.90;;;;;;6941865;28;20465;-64
2021/01/30 09:53:52;;;;;;;22.65;15.63;;;7.60;99.90;;;;;;6944896;28;20776;-65
2021/01/30 09:57:22;;;;;;;20.93;14.97;;;8.10;99.90;;;;;;6968982;28;20409;-64
2021/01/30 10:00:45;;;;;;;15.68;11.57;;;8.30;99.90;;;;;;6944419;28;20456;-64
2021/01/30 10:04:19;;;;;;;15.98;10.98;;;8.10;99.90;;;;;;6947931;28;20861;-65
2021/01/30 10:07:41;;;;;;;15.52;11.00;;;7.60;99.90;;;;;;6943634;28;20464;-64
2021/01/30 10:11:08;;;;;;;15.60;10.70;;;7.60;99.90;;;;;;6960268;28;20392;-64
2021/01/30 10:14:38;;;;;;;16.23;11.73;;;7.10;99.90;;;;;;6944185;28;20451;-64
2021/01/30 10:18:10;;;;;;;15.73;11.00;;;6.60;99.90;;;;;;6954261;28;20394;-65
2021/01/30 10:21:34;;;;;;;16.95;11.75;;;5.90;99.90;;;;;;6948238;28;20465;-65
2021/01/30 10:25:01;;;;;;;16.35;11.55;;;5.50;99.90;;;;;;6943058;28;20408;-63
2021/01/30 10:28:21;;;;;;;16.60;11.10;;;5.30;99.90;;;;;;6944907;28;20791;-63
2021/01/30 10:31:46;;;;;;;15.87;11.23;;;5.70;99.90;;;;;;6981483;28;20510;-64
2021/01/30 10:35:22;;;;;;;18.10;11.40;;;5.20;99.90;;;;;;6969899;28;20387;-64
2021/01/30 10:38:44;;;;;;;14.60;10.50;;;4.60;99.90;;;;;;6941875;28;20438;-63
2021/01/30 10:42:19;;;;;;;15.50;10.38;;;4.50;99.90;;;;;;6969639;28;20494;-64
2021/01/30 10:45:51;;;;;;;14.38;10.10;;;4.70;99.90;;;;;;6940031;28;20726;-64
2021/01/30 10:49:22;;;;;;;13.60;10.10;;;5.20;99.90;;;;;;6953846;28;20395;-64
2021/01/30 10:52:43;;;;;;;13.90;10.00;;;5.40;99.90;;;;;;6949368;28;20586;-66
2021/01/30 10:56:25;;;;;;;12.70;9.57;;;6.20;99.90;;;;;;6942066;28;20467;-66
2021/01/30 10:59:57;;;;;;;13.23;9.50;;;7.50;99.90;;;;;;6936488;28;20401;-64
2021/01/30 11:03:38;;;;;;;12.00;9.20;;;8.60;99.90;;;;;;6949126;28;20482;-65
2021/01/30 11:07:00;;;;;;;11.00;8.70;;;10.20;99.90;;;;;;6927626;28;20404;-65
2021/01/30 11:10:30;;;;;;;12.48;8.65;;;12.10;99.90;;;;;;6964617;28;20479;-65
2021/01/30 11:13:52;;;;;;;11.30;8.40;;;13.60;99.90;;;;;;6928318;28;20483;-65
2021/01/30 11:17:33;;;;;;;10.00;7.97;;;15.70;99.90;;;;;;6949367;28;21080;-64
2021/01/30 11:20:56;;;;;;;10.30;8.87;;;16.30;99.90;;;;;;6954734;28;20537;-66
2021/01/30 11:24:29;;;;;;;10.55;8.60;;;17.10;99.90;;;;;;6939165;28;20403;-67
2021/01/30 11:27:50;;;;;;;9.18;7.85;;;17.60;99.90;;;;;;6958059;28;20398;-66
2021/01/30 11:31:13;;;;;;;11.10;8.60;;;17.70;99.60;;;;;;6941880;28;20388;-65
2021/01/30 11:34:35;;;;;;;9.80;8.02;;;18.40;99.20;;;;;;6939364;28;20415;-66
2021/01/30 11:37:59;;;;;;;9.80;8.30;;;18.90;98.30;;;;;;6941568;28;20407;-65
2021/01/30 11:41:19;;;;;;;10.75;8.30;;;19.80;97.80;;;;;;6933382;28;20831;-65
2021/01/30 11:44:40;;;;;;;9.98;8.00;;;19.60;96.60;;;;;;6939732;28;20387;-65
2021/01/30 11:48:01;;;;;;;9.40;8.13;;;19.60;96.30;;;;;;6936381;28;20776;-64
2021/01/30 11:51:25;;;;;;;9.30;7.43;;;20.60;95.60;;;;;;6936266;28;20462;-65
2021/01/30 11:54:46;;;;;;;8.90;7.70;;;21.20;94.50;;;;;;6949769;28;20404;-65
2021/01/30 11:58:08;;;;;;;9.20;7.80;;;20.30;93.00;;;;;;6930028;28;20432;-65
2021/01/30 12:01:31;;;;;;;9.88;8.00;;;16.40;93.60;;;;;;6936173;28;20405;-63
2021/01/30 12:04:52;;;;;;;12.63;8.52;;;14.50;97.30;;;;;;6948898;28;20412;-64
2021/01/30 12:08:13;;;;;;;9.32;7.38;;;18.30;95.00;;;;;;6943380;28;20491;-64
2021/01/30 12:11:33;;;;;;;11.20;8.00;;;19.00;92.70;;;;;;6970831;28;20436;-64
2021/01/30 12:14:54;;;;;;;10.13;8.00;;;15.40;95.00;;;;;;6949379;28;20403;-63
2021/01/30 12:18:17;;;;;;;12.43;9.38;;;14.60;95.70;;;;;;6948187;28;20481;-64
2021/01/30 12:21:38;;;;;;;10.90;8.23;;;14.80;95.30;;;;;;6962622;28;20475;-64
2021/01/30 12:24:59;;;;;;;11.27;8.00;;;12.10;95.70;;;;;;6939777;28;20415;-63
2021/01/30 12:28:29;;;;;;;9.18;7.40;;;9.90;98.50;;;;;;6952502;28;20406;-66
2021/01/30 12:31:50;;;;;;;10.07;7.90;;;8.80;99.60;;;;;;6970613;28;20433;-66
2021/01/30 12:35:11;;;;;;;11.55;8.50;;;8.00;99.90;;;;;;6946416;28;20892;-65
2021/01/30 12:39:02;;;;;;;12.48;8.90;;;7.50;99.90;;;;;;6949174;28;20457;-66
2021/01/30 12:42:23;;;;;;;12.77;9.30;;;7.00;99.90;;;;;;6963282;28;20899;-65
2021/01/30 12:45:45;;;;;;;11.20;8.10;;;7.10;99.90;;;;;;6956409;28;20405;-65
2021/01/30 12:49:05;;;;;;;11.30;8.43;;;7.30;99.90;;;;;;6963032;28;20911;-65
2021/01/30 12:52:26;;;;;;;10.95;8.45;;;11.00;99.90;;;;;;6945435;28;20422;-64
2021/01/30 12:55:48;;;;;;;10.95;8.10;;;10.50;99.90;;;;;;6956192;28;20412;-63
2021/01/30 12:59:09;;;;;;;11.40;9.00;;;10.70;99.90;;;;;;6956401;28;20407;-64
2021/01/30 13:02:29;;;;;;;11.55;8.65;;;9.80;99.90;;;;;;6966149;28;20397;-64
2021/01/30 13:05:51;;;;;;;11.50;9.03;;;8.90;99.90;;;;;;6946489;28;20911;-65
2021/01/30 13:09:12;;;;;;;11.90;9.02;;;8.20;99.90;;;;;;6951841;28;20861;-65
2021/01/30 13:12:33;;;;;;;13.25;9.63;;;7.70;99.90;;;;;;6959016;28;20437;-65
2021/01/30 13:15:54;;;;;;;13.00;9.80;;;7.10;99.90;;;;;;6954372;28;20798;-65
2021/01/30 13:19:15;;;;;;;12.90;9.50;;;6.80;99.90;;;;;;6959229;28;20403;-64
2021/01/30 13:22:36;;;;;;;11.95;9.00;;;6.70;99.90;;;;;;6942459;28;20422;-64
2021/01/30 13:25:58;;;;;;;13.43;9.77;;;7.30;99.90;;;;;;6966149;28;20416;-64
2021/01/30 13:29:19;;;;;;;15.00;10.70;;;8.80;99.90;;;;;;6968824;28;20406;-64
2021/01/30 13:32:40;;;;;;;14.30;10.90;;;10.10;99.90;;;;;;6947010;28;20426;-65
2021/01/30 13:36:07;;;;;;;11.20;9.20;;;14.20;99.80;;;;;;6941309;28;20761;-64
2021/01/30 13:39:28;;;;;;;11.65;9.80;;;17.00;97.00;;;;;;6960294;28;20453;-64
2021/01/30 13:42:51;;;;;;;9.70;8.20;;;19.10;95.40;;;;;;6951361;28;20457;-64
2021/01/30 13:46:12;;;;;;;8.50;7.50;;;18.50;93.20;;;;;;6978635;28;20742;-64
2021/01/30 13:49:33;;;;;;;9.55;8.00;;;13.80;94.00;;;;;;6977125;28;20441;-63
2021/01/30 13:52:54;;;;;;;9.35;7.95;;;12.10;95.80;;;;;;6948602;28;20419;-63
2021/01/30 13:56:23;;;;;;;11.38;8.90;;;11.20;96.90;;;;;;6997511;28;20904;-64
2021/01/30 13:59:44;;;;;;;11.32;9.07;;;9.90;99.00;;;;;;6955779;28;20404;-64
2021/01/30 14:03:05;;;;;;;10.47;8.20;;;8.50;99.90;;;;;;6943345;28;20881;-64
2021/01/30 14:06:26;;;;;;;12.73;8.97;;;7.50;99.90;;;;;;6942848;28;20411;-64
2021/01/30 14:09:47;;;;;;;16.70;10.48;;;6.80;99.90;;;;;;6942387;28;20434;-62
2021/01/30 14:13:08;;;;;;;11.35;8.50;;;6.40;99.90;;;;;;6960520;28;20412;-64
2021/01/30 14:16:29;;;;;;;12.52;9.23;;;5.90;99.90;;;;;;6947779;28;20413;-62
2021/01/30 14:19:49;;;;;;;12.68;9.50;;;5.70;99.90;;;;;;6945805;28;20896;-63
2021/01/30 14:23:10;;;;;;;12.13;9.70;;;5.40;99.90;;;;;;6950282;28;20469;-63
2021/01/30 14:26:31;;;;;;;12.63;9.40;;;5.30;99.90;;;;;;6951679;28;20405;-61
2021/01/30 14:29:52;;;;;;;14.73;10.40;;;5.00;99.90;;;;;;6950822;28;20407;-64
2021/01/30 14:33:13;;;;;;;14.55;10.25;;;4.80;99.90;;;;;;6941895;28;20415;-63
2021/01/30 14:36:34;;;;;;;18.95;12.32;;;4.40;99.90;;;;;;6942252;28;20448;-63
2021/01/30 14:39:55;;;;;;;19.58;12.60;;;4.30;99.90;;;;;;6945018;28;21391;-64
2021/01/30 14:43:17;;;;;;;19.93;14.30;;;4.20;99.90;;;;;;6943488;28;20419;-62
2021/01/30 14:46:41;;;;;;;20.60;13.50;;;3.90;99.90;;;;;;6962298;28;20913;-64
2021/01/30 14:50:03;;;;;;;19.58;12.55;;;3.40;99.90;;;;;;6945466;28;20440;-63
2021/01/30 14:53:24;;;;;;;18.77;12.20;;;3.20;99.90;;;;;;7007049;28;20414;-63
2021/01/30 14:56:45;;;;;;;18.02;11.55;;;2.60;99.90;;;;;;6931687;28;20723;-64
2021/01/30 15:00:08;;;;;;;15.47;11.00;;;2.60;99.90;;;;;;6961960;28;20423;-64
2021/01/30 15:03:29;;;;;;;14.35;10.25;;;2.40;99.90;;;;;;6948321;28;20399;-64
2021/01/30 15:06:50;;;;;;;14.27;10.40;;;2.20;99.90;;;;;;6942193;28;20418;-64
2021/01/30 15:10:15;;;;;;;14.43;9.90;;;2.10;99.90;;;;;;6950384;28;20741;-63
2021/01/30 15:13:36;;;;;;;13.20;9.25;;;1.80;99.90;;;;;;6947668;28;20421;-64
2021/01/30 15:16:57;;;;;;;13.02;9.30;;;1.60;99.90;;;;;;6981755;28;20391;-64
2021/01/30 15:20:21;;;;;;;12.50;8.65;;;1.30;99.90;;;;;;6946492;28;20930;-64
2021/01/30 15:23:41;;;;;;;13.13;9.18;;;1.30;99.90;;;;;;6948919;28;20399;-64
2021/01/30 15:27:02;;;;;;;13.50;9.70;;;1.20;99.90;;;;;;6949678;28;20408;-62
2021/01/30 15:30:23;;;;;;;13.73;9.80;;;1.00;99.90;;;;;;6961373;28;20905;-63
2021/01/30 15:33:45;;;;;;;14.98;10.38;;;0.80;99.90;;;;;;6971500;28;20402;-64
2021/01/30 15:37:07;;;;;;;14.02;10.02;;;0.50;99.90;;;;;;6964436;28;20864;-62
2021/01/30 15:40:28;;;;;;;15.45;10.05;;;0.40;99.90;;;;;;6967786;28;20457;-63
2021/01/30 15:43:49;;;;;;;16.50;10.05;;;0.20;99.90;;;;;;6990250;28;20403;-63
2021/01/30 15:47:10;;;;;;;15.05;10.70;;;0.00;99.90;;;;;;6981097;28;20783;-63
2021/01/30 15:50:31;;;;;;;13.77;9.10;;;-0.10;99.90;;;;;;6969799;28;20398;-66
2021/01/30 15:53:52;;;;;;;14.85;9.93;;;-0.20;99.90;;;;;;6990778;28;20460;-66
2021/01/30 15:57:12;;;;;;;14.80;10.05;;;-0.30;99.90;;;;;;6950429;28;20411;-66
2021/01/30 16:00:33;;;;;;;14.15;9.57;;;-0.40;99.90;;;;;;6973555;28;20473;-65
2021/01/30 16:03:54;;;;;;;13.95;9.50;;;-0.70;99.90;;;;;;6961724;28;20442;-65
2021/01/30 16:07:15;;;;;;;15.00;9.87;;;-0.80;99.90;;;;;;6986473;28;20418;-62
2021/01/30 16:10:37;;;;;;;14.27;9.40;;;-0.90;99.90;;;;;;6996965;28;20397;-65
2021/01/30 16:13:59;;;;;;;15.48;9.80;;;-1.00;99.90;;;;;;6973169;28;20447;-65
2021/01/30 16:17:20;;;;;;;14.75;9.90;;;-1.20;99.90;;;;;;6974860;28;20391;-65
2021/01/30 16:20:45;;;;;;;15.68;10.05;;;-1.30;99.90;;;;;;6968573;28;20388;-65
2021/01/30 16:24:08;;;;;;;15.50;10.20;;;-1.40;99.90;;;;;;6975170;28;20407;-64
2021/01/30 16:27:28;;;;;;;15.88;10.25;;;-1.60;99.90;;;;;;6980450;28;20969;-64
2021/01/30 16:30:49;;;;;;;14.43;9.45;;;-1.60;99.90;;;;;;6966602;28;20492;-64
2021/01/30 16:34:10;;;;;;;14.02;9.50;;;-1.60;99.90;;;;;;6971880;28;20479;-64
2021/01/30 16:37:31;;;;;;;15.93;10.23;;;-1.70;99.90;;;;;;6971479;28;20469;-63
2021/01/30 16:40:52;;;;;;;13.55;9.70;;;-1.70;99.90;;;;;;6955022;28;20413;-64
2021/01/30 16:44:13;;;;;;;14.50;9.20;;;-1.90;99.90;;;;;;6968389;28;20387;-64
2021/01/30 16:47:44;;;;;;;13.55;9.40;;;-2.00;99.90;;;;;;6953346;28;20418;-64
2021/01/30 16:51:06;;;;;;;13.30;8.60;;;-2.00;99.90;;;;;;6971539;28;20486;-64
2021/01/30 16:54:27;;;;;;;14.15;8.95;;;-2.10;99.90;;;;;;6968002;28;20438;-65
2021/01/30 16:57:50;;;;;;;14.68;8.93;;;-2.30;99.90;;;;;;6976899;28;20425;-65
2021/01/30 17:01:11;;;;;;;13.75;8.90;;;-2.30;99.90;;;;;;6960619;28;20394;-65
2021/01/30 17:04:32;;;;;;;12.45;8.32;;;-2.50;99.90;;;;;;6958089;28;20390;-65
2021/01/30 17:07:54;;;;;;;13.98;8.77;;;-2.80;99.90;;;;;;6950072;28;20506;-64
2021/01/30 17:11:25;;;;;;;14.02;9.60;;;-2.90;99.90;;;;;;6985287;28;20406;-65
2021/01/30 17:14:46;;;;;;;15.55;9.80;;;-2.70;99.90;;;;;;6979384;28;20416;-65
2021/01/30 17:18:08;;;;;;;15.00;9.40;;;-2.70;99.90;;;;;;6976875;28;20500;-65
2021/01/30 17:21:29;;;;;;;15.23;9.68;;;-2.80;99.90;;;;;;6958616;28;21139;-65
2021/01/30 17:24:49;;;;;;;15.02;9.57;;;-2.80;99.90;;;;;;6948921;28;20398;-65
2021/01/30 17:28:13;;;;;;;15.38;10.15;;;-2.80;99.90;;;;;;6954177;28;20405;-65
2021/01/30 17:31:34;;;;;;;15.97;11.00;;;-2.80;99.90;;;;;;6943947;28;20399;-64
2021/01/30 17:34:55;;;;;;;16.27;10.70;;;-2.90;99.90;;;;;;6942605;28;20435;-59
